• Join FlightAware (Why Join?)
  • Login
  • US Flag 
07:43PM EST


 

Airport Tracker/Info


-or-


 

Live Flight TrackerFlight Track Log ✈ PDT4647 ✈ 25-May-2013 ✈ KSBY - KCLT

Flight Track Log - Related Links

Times and Time Zones

All times are in EDT time to prevent confusion due to time zone crossing. See the PDT4647 flight status page for this flight to view local times or setup timezone preferences in your user account.

Time Position Orientation Groundspeed Altitude Reporting Facility
EDT Latitude Longitude Course Direction KTS MPH feet Rate Location/Type
11:56AM 38.3525 -75.5389 202° Southwest 102 117 1,200  Level Washington Center
11:57AM 38.3150 -75.5625 206° Southwest 181 208 2,500 1,200 Climbing Washington Center
11:58AM 38.1645 -75.5914 199° South  Level FlightAware Approximate
11:59AM 38.1065 -75.6163 199° South  Level FlightAware Approximate
11:59AM 38.2211 -75.6075 201° Southwest 270 311 5,000  Level Washington Center
12:00PM 38.0489 -75.6422 202° Southwest  Level FlightAware Approximate
12:00PM 38.1772 -75.6286 201° Southwest 238 274 5,900  Level Washington Center
12:01PM 37.9920 -75.6707 202° Southwest  Level FlightAware Approximate
12:01PM 38.1272 -75.6497 198° South 210 242 6,900  Level Washington Center
12:02PM 38.0772 -75.6736 201° Southwest 197 227 7,900 960 Climbing Washington Center
12:03PM 38.0208 -75.6997 200° South 197 227 8,900 960 Climbing Washington Center
12:04PM 37.9667 -75.7208 197° South 197 227 9,800 900 Climbing Washington Center
12:05PM 37.9144 -75.7469 202° Southwest 197 227 10,800 900 Climbing Washington Center
12:06PM 37.8622 -75.7733 202° Southwest 202 232 11,700 900 Climbing Washington Center
12:07PM 37.8100 -75.7967 199° South 202 232 12,700 960 Climbing Washington Center
12:08PM 37.7600 -75.8150 196° South 202 232 13,700 780 Climbing Washington Center
12:08PM 37.7350 -75.8281 202° Southwest 187 215 13,900 540 Climbing Washington Center
12:09PM 37.7119 -75.8386 200° South 195 224 14,200 660 Climbing Washington Center
12:10PM 37.6536 -75.8672 201° Southwest 221 254 14,900 660 Climbing Washington Center
12:11PM 37.6097 -75.9064 215° Southwest 205 236 15,600 420 Climbing Washington Center
12:12PM 37.5719 -75.9586 228° Southwest 204 235 15,800 180 Climbing Washington Center
12:13PM 37.5258 -76.0133 223° Southwest 217 250 16,000  Climbing Washington Center
12:14PM 37.4797 -76.0733 226° Southwest 230 265 15,900  Descending Washington Center
12:15PM 37.4317 -76.1333 225° Southwest 241 277 16,000  Climbing Washington Center
12:16PM 37.3833 -76.1903 223° Southwest 242 278 16,000  Level Washington Center
12:17PM 37.3372 -76.2447 223° Southwest 242 278 16,000  Level Washington Center
12:18PM 37.2825 -76.3150 226° Southwest 250 288 16,000  Level Washington Center
12:19PM 37.2342 -76.3822 228° Southwest 250 288 16,000  Level Washington Center
12:20PM 37.1900 -76.4261 218° Southwest 251 289 16,000  Level Washington Center
12:21PM 37.1417 -76.4856 224° Southwest 271 312 16,000  Level Washington Center
12:22PM 37.0911 -76.5475 224° Southwest 265 305 16,000  Level Washington Center
12:23PM 37.0425 -76.6094 225° Southwest 259 298 16,000  Level Washington Center
12:24PM 36.9961 -76.6686 226° Southwest 248 285 16,000  Level Washington Center
12:25PM 36.9497 -76.7225 223° Southwest 243 280 16,000  Level Washington Center
12:26PM 36.9056 -76.7764 224° Southwest 243 280 16,000  Level Washington Center
12:27PM 36.8631 -76.8303 225° Southwest 233 268 16,100  Climbing Washington Center
12:28PM 36.8189 -76.8839 224° Southwest 223 257 16,100  Level Washington Center
12:29PM 36.7744 -76.9403 225° Southwest 223 257 16,100  Level Washington Center
12:30PM 36.7278 -76.9964 224° Southwest 223 257 16,100  Level Washington Center
12:31PM 36.6939 -77.0528 233° Southwest 218 251 16,100  Level Washington Center
12:32PM 36.6639 -77.1144 239° Southwest 213 245 16,100  Level Washington Center
12:33PM 36.6358 -77.1786 241° Southwest 213 245 16,100  Level Washington Center
12:34PM 36.6058 -77.2428 240° Southwest 213 245 16,100  Level Washington Center
12:35PM 36.5756 -77.3092 240° Southwest 213 245 16,100  Level Washington Center
12:36PM 36.5475 -77.3733 241° Southwest 213 245 16,100  Level Washington Center
12:37PM 36.5153 -77.4372 238° Southwest 218 251 16,100  Level Washington Center
12:38PM 36.4872 -77.5011 241° Southwest 218 251 16,100  Level Washington Center
12:39PM 36.4569 -77.5597 237° Southwest 218 251 16,100  Level Washington Center
12:40PM 36.4311 -77.6186 241° Southwest 218 251 16,100  Level Washington Center
12:41PM 36.4006 -77.6847 240° Southwest 218 251 16,100  Level Washington Center
12:42PM 36.3725 -77.7511 242° Southwest 218 251 16,100  Level Washington Center
12:43PM 36.3400 -77.8147 238° Southwest 218 251 16,100  Level Washington Center
12:44PM 36.3117 -77.8758 240° Southwest 218 251 16,100  Level Washington Center
12:45PM 36.2833 -77.9394 241° Southwest 218 251 16,100  Level Washington Center
12:46PM 36.2550 -77.9978 239° Southwest 218 251 16,100  Level Washington Center
12:47PM 36.2244 -78.0611 239° Southwest 218 251 16,100  Level Washington Center
12:48PM 36.1961 -78.1169 238° Southwest 208 239 16,100  Level Washington Center
12:49PM 36.1697 -78.1881 245° Southwest 203 234 16,100  Level Washington Center
12:50PM 36.1661 -78.2522 266° West 190 219 16,100  Level Washington Center
12:51PM 36.1625 -78.3192 266° West 195 224 16,100  Level Washington Center
12:52PM 36.1569 -78.3858 264° West 195 224 16,100  Level Washington Center
12:53PM 36.1533 -78.4525 266° West 200 230 16,100  Level Washington Center
12:54PM 36.1494 -78.5167 266° West 200 230 16,100  Level Washington Center
12:55PM 36.1458 -78.5833 266° West 200 230 16,100  Level Washington Center
12:56PM 36.1422 -78.6425 266° West 200 230 16,100  Level Washington Center
12:57PM 36.1361 -78.7169 264° West 200 230 16,100  Level Washington Center
12:58PM 36.1322 -78.7836 266° West 200 230 16,100 -180 Level Washington Center
12:59PM 36.1283 -78.8503 266° West 200 230 15,800 -420 Descending Washington Center
01:00PM 36.1244 -78.9219 266° West 200 230 15,300 -540 Descending Washington Center
01:01PM 36.1181 -78.9939 264° West 205 236 14,800 -540 Descending Washington Center
01:02PM 36.1139 -79.0681 266° West 211 243 14,300 -540 Descending Washington Center
01:03PM 36.1078 -79.1347 264° West 218 251 13,800 -540 Descending Washington Center
01:05PM 36.0960 -79.2593 263° West  Level FlightAware Approximate
01:12PM 36.0469 -79.7773 265° West  Level FlightAware Approximate
01:13PM 36.0416 -79.8515 265° West  Level FlightAware Approximate
01:14PM 36.0363 -79.9257 265° West  Level FlightAware Approximate
01:15PM 36.0157 -79.9919 229° Southwest  Level FlightAware Approximate
01:16PM 35.9764 -80.0482 229° Southwest  Level FlightAware Approximate
01:17PM 35.9370 -80.1044 229° Southwest  Level FlightAware Approximate
01:18PM 35.8931 -80.1687 231° Southwest  Level FlightAware Approximate
01:19PM 35.8498 -80.2336 227° Southwest  Level FlightAware Approximate